Terminal Aerodrome Forecast
Issued by NWS

Home | Current Version | Previous Version | Text Only | Print | Product List | Glossary On
Versions: 1 2 3 4 5 6 7 8 9 10 11 12 13 14 15 16 17 18
816
FTUS45 KABQ 241402 AAA
TAFROW
TAF AMD
KROW 241402Z 2414/2512 19008KT P6SM SCT003 BKN009
      TEMPO 2414/2416 5SM BR OVC003
     FM241600 19008KT P6SM SCT015
     FM241800 19013KT P6SM FEW070
     FM250100 16011KT P6SM VCSH BKN035=

USA.gov is the U.S. government's official web portal to all federal, state and local government web resources and services.